Decoded Metar for KNCA (JACKSONVILLE in NC, USA) (IATA:NCA) | Meteo·Mobile Aviation Weather
aviador You're here:

KNCA Decoded Metar

JACKSONVILLE in NC, USA
Report Time2018-09-21 16:56:00
UTC Time2018-09-21 17:17:41
Flight Rules vfr VFR
WindVRB at 03 kt
Visibility9999 m
Phenomena:N/A
Clouds:N/A
Expected CloudBase > 4,400 ft AGL from Temp-Dew spread
CeilingNone
Temp28°C (ISA +13)
Dew Point17°C (51% RH)
Heat Index28.5°C
QNH1022 hPa
Density Alt1,486 ft
Elevation26 ft
Report Wrong Elevation
Raw Report
KNCA 211656Z VRB03KT 10SM CLR 28/17 A3018 RMK AO2 SLP224
T02780167=

Extra information for KNCA:More info

Metar Taf Metar & Taf Last 4 Metars F.Rules Stats Wind Profile Meteogram Temp Stats Airport Information Weather charts Add Link Nearby VenuesMetar ALERT Operation Metar Decoded Social comments

AIRNAV info for KNCA